Lugovoj, Kazakhstan
Current Conditions -  °F | °C
As of 1:00 PM on Saturday 25 Oct 2014 (Local Time) from UADD Reporting Station
Clear Clear  
Wind Chill: 63°   Ceiling: Unl
Heat Index: 63°   Visibility: 6mi
Dew Point: 46°   Wind: 4mph
Humidity: 55%   Direction: 360°N
Pressure: 29.97"   Gusts: NA
Location:  42.95°N, 72.75°E
Report Text: UADD 250700Z 36002MPS 310V040 9999 NSC 17/08 Q1015 R13/0///65NOSIG RMK QFE704/0939
Loading
Personal Weather Stations






























Interactive Weather Map
Tropical Storm Tracking
New forecast layout! Learn more

10-Day Weather Forecast

Advertisements
Track Severe Weather on mobile